createdAt,value
2023-02-04T00:00:21.024Z,102752.66
2023-02-04T00:05:18.530Z,102760.94
2023-02-04T00:10:15.139Z,102767.56
2023-02-04T00:15:11.722Z,102765.03
2023-02-04T00:20:08.541Z,102771.38
2023-02-04T00:25:05.311Z,102777.44
2023-02-04T00:30:01.736Z,102802.63
2023-02-04T00:34:58.110Z,102816.75
2023-02-04T00:39:54.493Z,102839.16
2023-02-04T00:44:50.867Z,102850.78
2023-02-04T00:49:47.306Z,102860.34
2023-02-04T00:54:43.711Z,102879.88
2023-02-04T00:59:40.141Z,102906.00
2023-02-04T01:04:36.563Z,102922.63
2023-02-04T01:09:33.851Z,102935.91
2023-02-04T01:14:30.264Z,102955.00
2023-02-04T01:19:26.729Z,102949.22
2023-02-04T01:24:23.148Z,102967.47
2023-02-04T01:29:19.522Z,102981.16
2023-02-04T01:34:15.910Z,102987.00
2023-02-04T01:39:12.309Z,102988.25
2023-02-04T01:44:08.693Z,102996.97
2023-02-04T01:49:06.756Z,103001.94
2023-02-04T01:54:03.915Z,103025.66
2023-02-04T01:59:00.427Z,103024.41
2023-02-04T02:03:56.866Z,103027.28
2023-02-04T02:08:53.369Z,103035.41
2023-02-04T02:13:49.841Z,103052.22
2023-02-04T02:18:46.342Z,103052.63
2023-02-04T02:23:53.656Z,103062.59
2023-02-04T02:28:50.941Z,103077.47
2023-02-04T02:33:48.178Z,103081.84
2023-02-04T02:38:44.619Z,103102.72
2023-02-04T02:43:41.046Z,103120.94
2023-02-04T02:48:37.494Z,103134.16
2023-02-04T02:53:34.168Z,103147.38
2023-02-04T02:58:33.099Z,103162.19
2023-02-04T03:03:47.601Z,103167.03
2023-02-04T03:08:44.692Z,103173.97
2023-02-04T03:13:41.845Z,103187.19
2023-02-04T03:18:39.116Z,103189.63
2023-02-04T03:23:36.890Z,103196.19
2023-02-04T03:28:34.372Z,103211.81
2023-02-04T03:33:31.501Z,103231.31
2023-02-04T03:38:28.055Z,103240.81
2023-02-04T03:43:24.436Z,103258.53
2023-02-04T03:48:20.858Z,103276.84
2023-02-04T03:53:17.239Z,103287.75
2023-02-04T03:58:13.621Z,103300.88
2023-02-04T04:03:10.096Z,103308.19
2023-02-04T04:08:06.585Z,103321.41
2023-02-04T04:13:03.055Z,103311.53
2023-02-04T04:17:59.450Z,103316.00
2023-02-04T04:22:56.083Z,103328.09
2023-02-04T04:27:52.530Z,103348.88
2023-02-04T04:32:48.909Z,103344.75
2023-02-04T04:37:45.369Z,103352.63
2023-02-04T04:42:41.853Z,103351.75
2023-02-04T04:47:38.493Z,103355.06
2023-02-04T04:52:34.875Z,103365.97
2023-02-04T04:57:31.590Z,103375.22
2023-02-04T05:02:28.007Z,103381.91
2023-02-04T05:07:24.545Z,103392.28
2023-02-04T05:12:20.958Z,103394.91
2023-02-04T05:17:17.535Z,103419.94
2023-02-04T05:22:13.983Z,103432.47
2023-02-04T05:27:10.376Z,103435.63
2023-02-04T05:32:06.856Z,103443.16
2023-02-04T05:37:03.430Z,103445.09
2023-02-04T05:41:59.855Z,103449.81
2023-02-04T05:46:56.264Z,103459.34
2023-02-04T05:51:52.629Z,103466.66
2023-02-04T05:56:49.405Z,103468.94
2023-02-04T06:01:45.779Z,103474.56
2023-02-04T06:06:43.031Z,103477.44
2023-02-04T06:11:39.696Z,103490.59
2023-02-04T06:16:36.487Z,103498.72
2023-02-04T06:21:32.885Z,103508.88
2023-02-04T06:26:29.486Z,103511.25
2023-02-04T06:31:26.025Z,103536.81
2023-02-04T06:36:22.458Z,103540.84
2023-02-04T06:41:18.919Z,103541.34
2023-02-04T06:46:16.018Z,103558.31
2023-02-04T06:51:12.564Z,103569.56
2023-02-04T06:56:08.980Z,103580.63
2023-02-04T07:01:06.235Z,103582.13
2023-02-04T07:06:02.678Z,103593.19
2023-02-04T07:10:59.166Z,103609.66
2023-02-04T07:15:55.687Z,103616.34
2023-02-04T07:20:52.403Z,103619.41
2023-02-04T07:25:49.045Z,103629.66
2023-02-04T07:30:45.958Z,103640.56
2023-02-04T07:35:42.446Z,103646.75
2023-02-04T07:40:39.173Z,103655.41
2023-02-04T07:45:35.636Z,103656.88
2023-02-04T07:50:32.428Z,103656.63
2023-02-04T07:55:29.065Z,103662.44
2023-02-04T08:00:25.514Z,103670.53
2023-02-04T08:05:21.968Z,103673.81
2023-02-04T08:10:18.482Z,103676.47
2023-02-04T08:15:16.006Z,103678.66
2023-02-04T08:20:12.773Z,103692.63
2023-02-04T08:25:11.315Z,103687.47
2023-02-04T08:30:08.753Z,103699.50
2023-02-04T08:35:06.627Z,103706.13
2023-02-04T08:40:03.236Z,103706.09
2023-02-04T08:44:59.681Z,103707.75
2023-02-04T08:49:56.129Z,103700.06
2023-02-04T08:54:52.565Z,103702.59
2023-02-04T08:59:48.995Z,103720.75
2023-02-04T09:04:45.391Z,103724.59
2023-02-04T09:09:41.767Z,103720.38
2023-02-04T09:14:38.207Z,103729.78
2023-02-04T09:19:34.638Z,103725.59
2023-02-04T09:24:31.021Z,103728.28
2023-02-04T09:29:27.398Z,103733.69
2023-02-04T09:34:23.996Z,103734.88
2023-02-04T09:39:20.376Z,103729.72
2023-02-04T09:44:19.887Z,103727.66
2023-02-04T09:49:16.666Z,103733.00
2023-02-04T09:54:15.718Z,103730.59
2023-02-04T09:59:14.648Z,103731.56
2023-02-04T10:04:14.915Z,103736.38
2023-02-04T10:09:13.538Z,103744.19
2023-02-04T10:14:16.584Z,103738.34
2023-02-04T10:19:15.539Z,103753.00
2023-02-04T10:24:17.617Z,103734.47
2023-02-04T10:29:23.802Z,103739.75
2023-02-04T10:34:23.395Z,103737.41
2023-02-04T10:39:22.742Z,103731.94
2023-02-04T10:44:25.423Z,103744.50
2023-02-04T10:49:24.289Z,103739.91
2023-02-04T10:54:30.315Z,103752.84
2023-02-04T10:59:28.939Z,103744.34
2023-02-04T11:04:27.008Z,103757.50
2023-02-04T11:09:23.447Z,103756.63
2023-02-04T11:14:26.701Z,103755.81
2023-02-04T11:19:35.709Z,103764.81
2023-02-04T11:24:34.201Z,103766.44
2023-02-04T11:29:38.083Z,103757.06
2023-02-04T11:34:50.949Z,103772.94
2023-02-04T11:39:49.281Z,103754.13
2023-02-04T11:44:55.416Z,103755.22
2023-02-04T11:49:58.734Z,103765.63
2023-02-04T11:54:59.719Z,103755.22
2023-02-04T11:59:56.270Z,103754.38
2023-02-04T12:05:08.317Z,103768.69
2023-02-04T12:10:16.609Z,103759.53
2023-02-04T12:15:21.463Z,103767.41
2023-02-04T12:20:18.034Z,103763.69
2023-02-04T12:25:17.033Z,103770.84
2023-02-04T12:30:13.669Z,103769.75
2023-02-04T12:35:10.101Z,103768.94
2023-02-04T12:40:07.461Z,103769.38
2023-02-04T12:45:03.993Z,103773.94
2023-02-04T12:50:00.756Z,103775.59
2023-02-04T12:54:57.142Z,103775.97
2023-02-04T12:59:55.484Z,103775.44
2023-02-04T13:04:52.643Z,103779.00
2023-02-04T13:09:49.245Z,103787.44
2023-02-04T13:14:45.673Z,103797.94
2023-02-04T13:19:42.108Z,103791.47
2023-02-04T13:24:38.709Z,103796.94
2023-02-04T13:29:35.114Z,103787.03
2023-02-04T13:34:31.529Z,103792.44
2023-02-04T13:39:27.952Z,103793.78
2023-02-04T13:44:24.532Z,103788.28
2023-02-04T13:49:21.633Z,103794.75
2023-02-04T13:54:18.014Z,103803.78
2023-02-04T13:59:14.499Z,103802.88
2023-02-04T14:04:10.886Z,103801.63
2023-02-04T14:09:07.306Z,103800.47
2023-02-04T14:14:03.787Z,103807.47
2023-02-04T14:19:00.484Z,103819.00
2023-02-04T14:23:56.939Z,103819.59
2023-02-04T14:28:53.458Z,103818.22
2023-02-04T14:33:50.460Z,103824.75
2023-02-04T14:38:46.889Z,103826.00
2023-02-04T14:43:43.284Z,103830.56
2023-02-04T14:48:39.880Z,103831.81
2023-02-04T14:53:36.266Z,103827.59
2023-02-04T14:58:32.660Z,103830.03
2023-02-04T15:03:29.212Z,103848.44
2023-02-04T15:08:25.709Z,103840.47
2023-02-04T15:13:22.194Z,103843.41
2023-02-04T15:18:18.654Z,103844.66
2023-02-04T15:23:15.087Z,103849.59
2023-02-04T15:28:12.281Z,103846.53
2023-02-04T15:33:08.814Z,103842.25
2023-02-04T15:38:05.429Z,103852.84
2023-02-04T15:43:01.900Z,103840.13
2023-02-04T15:47:58.327Z,103838.81
2023-02-04T15:52:54.895Z,103852.00
2023-02-04T15:57:51.339Z,103853.44
2023-02-04T16:02:47.776Z,103856.03
2023-02-04T16:07:44.187Z,103866.00
2023-02-04T16:12:40.614Z,103862.22
2023-02-04T16:17:37.024Z,103871.75
2023-02-04T16:22:33.610Z,103873.31
2023-02-04T16:27:31.720Z,103869.19
2023-02-04T16:32:28.939Z,103872.03
2023-02-04T16:37:25.401Z,103870.22
2023-02-04T16:42:21.906Z,103878.97
2023-02-04T16:47:18.356Z,103878.09
2023-02-04T16:52:14.763Z,103890.94
2023-02-04T16:57:12.153Z,103891.72
2023-02-04T17:02:09.960Z,103892.97
2023-02-04T17:07:06.461Z,103899.78
2023-02-04T17:12:03.097Z,103894.38
2023-02-04T17:16:59.523Z,103901.84
2023-02-04T17:21:55.941Z,103897.56
2023-02-04T17:26:52.393Z,103907.84
2023-02-04T17:31:48.926Z,103908.31
2023-02-04T17:36:45.424Z,103917.53
2023-02-04T17:41:41.793Z,103911.91
2023-02-04T17:46:38.240Z,103917.69
2023-02-04T17:51:35.199Z,103914.06
2023-02-04T17:56:31.751Z,103907.06
2023-02-04T18:01:28.506Z,103904.81
2023-02-04T18:06:28.793Z,103888.28
2023-02-04T18:11:27.991Z,103898.38
2023-02-04T18:16:28.518Z,103896.81
2023-02-04T18:21:27.769Z,103899.44
2023-02-04T18:26:25.710Z,103908.31
2023-02-04T18:31:35.054Z,103920.44
2023-02-04T18:36:33.191Z,103919.22
2023-02-04T18:41:33.683Z,103926.56
2023-02-04T18:46:35.537Z,103921.53
2023-02-04T18:51:35.015Z,103917.41
2023-02-04T18:56:36.617Z,103921.38
2023-02-04T19:01:38.799Z,103920.06
2023-02-04T19:06:40.439Z,103921.44
2023-02-04T19:11:40.634Z,103920.53
2023-02-04T19:16:37.121Z,103922.09
2023-02-04T19:21:34.494Z,103921.72
2023-02-04T19:26:42.341Z,103913.34
2023-02-04T19:31:41.444Z,103911.69
2023-02-04T19:36:38.439Z,103917.69
2023-02-04T19:41:44.246Z,103909.97
2023-02-04T19:46:44.149Z,103915.75
2023-02-04T19:51:40.814Z,103915.88
2023-02-04T19:56:40.094Z,103914.59
2023-02-04T20:01:36.866Z,103916.25
2023-02-04T20:06:36.361Z,103908.72
2023-02-04T20:11:36.197Z,103918.81
2023-02-04T20:17:00.583Z,103906.88
2023-02-04T20:22:19.988Z,103908.63
2023-02-04T20:27:21.378Z,103901.25
2023-02-04T20:32:26.119Z,103887.97
2023-02-04T20:37:26.913Z,103889.00
2023-02-04T20:42:34.301Z,103892.03
2023-02-04T20:47:34.823Z,103894.41
2023-02-04T20:53:08.219Z,103894.09
2023-02-04T20:58:27.222Z,103889.06
2023-02-04T21:03:36.877Z,103885.88
2023-02-04T21:08:43.866Z,103899.31
2023-02-04T21:13:41.058Z,103909.41
2023-02-04T21:18:37.796Z,103914.13
2023-02-04T21:23:36.091Z,103912.59
2023-02-04T21:28:34.027Z,103911.59
2023-02-04T21:33:30.997Z,103913.63
2023-02-04T21:38:28.332Z,103929.41
2023-02-04T21:43:24.942Z,103922.03
2023-02-04T21:48:21.970Z,103920.84
2023-02-04T21:53:18.350Z,103931.75
2023-02-04T21:58:15.253Z,103932.41
2023-02-04T22:03:15.995Z,103924.81
2023-02-04T22:08:12.950Z,103906.84
2023-02-04T22:13:10.597Z,103903.63
2023-02-04T22:18:07.232Z,103899.75
2023-02-04T22:23:03.844Z,103901.06
2023-02-04T22:28:00.560Z,103908.81
2023-02-04T22:33:00.605Z,103905.44
2023-02-04T22:37:59.972Z,103913.66
2023-02-04T22:42:57.535Z,103923.56
2023-02-04T22:47:53.928Z,103913.50
2023-02-04T22:52:50.589Z,103912.81
2023-02-04T22:57:47.143Z,103918.53
2023-02-04T23:02:43.628Z,103914.81
2023-02-04T23:07:40.123Z,103909.41
2023-02-04T23:12:36.507Z,103899.00
2023-02-04T23:17:32.927Z,103905.34
2023-02-04T23:22:29.297Z,103908.56
2023-02-04T23:27:25.834Z,103921.47
2023-02-04T23:32:23.359Z,103911.34
2023-02-04T23:37:19.742Z,103891.91
2023-02-04T23:42:16.149Z,103884.47
2023-02-04T23:47:12.554Z,103898.53
2023-02-04T23:52:08.994Z,103897.00
2023-02-04T23:57:05.745Z,103877.72
